sensor_id;sensor_type;location;lat;lon;timestamp;temperature;humidity
1506;DHT22;744;51.436;7.356;2023-05-29T00:00:34;18.80;32.20
1506;DHT22;744;51.436;7.356;2023-05-29T00:03:01;19.10;32.40
1506;DHT22;744;51.436;7.356;2023-05-29T00:05:31;18.90;32.20
1506;DHT22;744;51.436;7.356;2023-05-29T00:11:49;19.00;32.30
1506;DHT22;744;51.436;7.356;2023-05-29T00:14:19;19.00;32.30
1506;DHT22;744;51.436;7.356;2023-05-29T00:16:46;18.90;32.70
1506;DHT22;744;51.436;7.356;2023-05-29T00:19:17;18.90;32.50
1506;DHT22;744;51.436;7.356;2023-05-29T00:21:44;18.90;32.70
1506;DHT22;744;51.436;7.356;2023-05-29T00:24:17;18.80;32.80
1506;DHT22;744;51.436;7.356;2023-05-29T00:26:44;18.80;33.00
1506;DHT22;744;51.436;7.356;2023-05-29T00:29:11;18.70;32.90
1506;DHT22;744;51.436;7.356;2023-05-29T00:31:41;18.90;33.20
1506;DHT22;744;51.436;7.356;2023-05-29T00:34:08;18.90;33.20
1506;DHT22;744;51.436;7.356;2023-05-29T00:36:37;18.70;33.00
1506;DHT22;744;51.436;7.356;2023-05-29T00:39:05;18.70;33.50
1506;DHT22;744;51.436;7.356;2023-05-29T00:41:31;18.40;33.60
1506;DHT22;744;51.436;7.356;2023-05-29T00:44:01;18.40;34.10
1506;DHT22;744;51.436;7.356;2023-05-29T00:46:30;18.10;34.40
1506;DHT22;744;51.436;7.356;2023-05-29T00:49:21;18.00;35.20
1506;DHT22;744;51.436;7.356;2023-05-29T00:51:52;18.10;34.90
1506;DHT22;744;51.436;7.356;2023-05-29T00:54:27;17.90;35.10
1506;DHT22;744;51.436;7.356;2023-05-29T00:56:57;17.80;35.30
1506;DHT22;744;51.436;7.356;2023-05-29T00:59:31;17.60;35.80
1506;DHT22;744;51.436;7.356;2023-05-29T01:02:02;17.70;35.90
1506;DHT22;744;51.436;7.356;2023-05-29T01:04:30;17.00;36.00
1506;DHT22;744;51.436;7.356;2023-05-29T01:07:09;17.40;36.60
1506;DHT22;744;51.436;7.356;2023-05-29T01:09:37;17.30;37.10
1506;DHT22;744;51.436;7.356;2023-05-29T01:12:10;16.80;37.20
1506;DHT22;744;51.436;7.356;2023-05-29T01:23:07;17.10;38.10
1506;DHT22;744;51.436;7.356;2023-05-29T01:26:07;17.00;38.10
1506;DHT22;744;51.436;7.356;2023-05-29T01:28:48;17.10;38.40
1506;DHT22;744;51.436;7.356;2023-05-29T01:31:36;16.60;38.50
1506;DHT22;744;51.436;7.356;2023-05-29T01:34:04;16.70;38.90
1506;DHT22;744;51.436;7.356;2023-05-29T01:36:31;16.50;39.10
1506;DHT22;744;51.436;7.356;2023-05-29T01:39:00;16.50;39.40
1506;DHT22;744;51.436;7.356;2023-05-29T01:41:29;16.40;39.80
1506;DHT22;744;51.436;7.356;2023-05-29T01:44:01;16.20;39.90
1506;DHT22;744;51.436;7.356;2023-05-29T01:46:31;16.20;39.90
1506;DHT22;744;51.436;7.356;2023-05-29T01:48:59;15.90;39.80
1506;DHT22;744;51.436;7.356;2023-05-29T01:51:27;16.20;40.30
1506;DHT22;744;51.436;7.356;2023-05-29T01:53:58;16.00;40.20
1506;DHT22;744;51.436;7.356;2023-05-29T01:56:30;16.10;40.50
1506;DHT22;744;51.436;7.356;2023-05-29T01:58:59;16.00;40.20
1506;DHT22;744;51.436;7.356;2023-05-29T02:01:29;15.90;40.10
1506;DHT22;744;51.436;7.356;2023-05-29T02:04:00;15.50;39.70
1506;DHT22;744;51.436;7.356;2023-05-29T02:06:28;15.80;39.90
1506;DHT22;744;51.436;7.356;2023-05-29T02:09:18;15.70;39.80
1506;DHT22;744;51.436;7.356;2023-05-29T02:11:47;15.90;40.00
1506;DHT22;744;51.436;7.356;2023-05-29T02:14:15;16.00;39.90
1506;DHT22;744;51.436;7.356;2023-05-29T02:16:42;15.70;40.20
1506;DHT22;744;51.436;7.356;2023-05-29T02:19:11;15.60;39.50
1506;DHT22;744;51.436;7.356;2023-05-29T02:21:39;15.70;39.50
1506;DHT22;744;51.436;7.356;2023-05-29T02:24:09;15.90;39.40
1506;DHT22;744;51.436;7.356;2023-05-29T02:26:36;16.00;39.10
1506;DHT22;744;51.436;7.356;2023-05-29T02:29:04;16.00;39.00
1506;DHT22;744;51.436;7.356;2023-05-29T02:31:34;15.90;39.10
1506;DHT22;744;51.436;7.356;2023-05-29T02:34:05;15.70;38.80
1506;DHT22;744;51.436;7.356;2023-05-29T02:36:32;16.10;39.20
1506;DHT22;744;51.436;7.356;2023-05-29T02:39:03;16.10;39.10
1506;DHT22;744;51.436;7.356;2023-05-29T02:41:31;16.00;39.10
1506;DHT22;744;51.436;7.356;2023-05-29T02:43:59;16.30;38.70
1506;DHT22;744;51.436;7.356;2023-05-29T02:46:27;16.40;38.20
1506;DHT22;744;51.436;7.356;2023-05-29T02:48:55;16.00;38.20
1506;DHT22;744;51.436;7.356;2023-05-29T02:51:25;16.30;39.00
1506;DHT22;744;51.436;7.356;2023-05-29T02:53:52;16.10;39.10
1506;DHT22;744;51.436;7.356;2023-05-29T02:56:39;16.10;38.60
1506;DHT22;744;51.436;7.356;2023-05-29T02:59:06;16.30;38.40
1506;DHT22;744;51.436;7.356;2023-05-29T03:01:33;16.50;38.30
1506;DHT22;744;51.436;7.356;2023-05-29T03:04:01;16.50;38.10
1506;DHT22;744;51.436;7.356;2023-05-29T03:06:31;16.50;38.00
1506;DHT22;744;51.436;7.356;2023-05-29T03:08:58;16.50;38.10
1506;DHT22;744;51.436;7.356;2023-05-29T03:11:26;16.20;37.90
1506;DHT22;744;51.436;7.356;2023-05-29T03:13:53;16.20;38.00
1506;DHT22;744;51.436;7.356;2023-05-29T03:16:20;16.60;38.10
1506;DHT22;744;51.436;7.356;2023-05-29T03:18:47;16.60;38.00
1506;DHT22;744;51.436;7.356;2023-05-29T03:21:35;16.40;37.60
1506;DHT22;744;51.436;7.356;2023-05-29T03:24:03;16.70;37.60
1506;DHT22;744;51.436;7.356;2023-05-29T03:26:30;16.80;37.80
1506;DHT22;744;51.436;7.356;2023-05-29T03:28:56;16.50;37.70
1506;DHT22;744;51.436;7.356;2023-05-29T03:31:27;16.60;38.10
1506;DHT22;744;51.436;7.356;2023-05-29T03:33:54;16.50;38.20
1506;DHT22;744;51.436;7.356;2023-05-29T03:36:22;16.40;38.20
1506;DHT22;744;51.436;7.356;2023-05-29T03:38:49;16.20;38.30
1506;DHT22;744;51.436;7.356;2023-05-29T03:41:19;16.20;38.60
1506;DHT22;744;51.436;7.356;2023-05-29T03:43:47;16.40;38.80
1506;DHT22;744;51.436;7.356;2023-05-29T03:46:14;16.10;38.60
1506;DHT22;744;51.436;7.356;2023-05-29T03:48:44;15.80;38.80
1506;DHT22;744;51.436;7.356;2023-05-29T03:58:08;15.80;38.90
1506;DHT22;744;51.436;7.356;2023-05-29T04:00:36;15.60;39.00
1506;DHT22;744;51.436;7.356;2023-05-29T04:03:03;15.50;39.20
1506;DHT22;744;51.436;7.356;2023-05-29T04:05:30;15.60;39.40
1506;DHT22;744;51.436;7.356;2023-05-29T04:08:00;15.60;39.70
1506;DHT22;744;51.436;7.356;2023-05-29T04:14:22;15.30;40.10
1506;DHT22;744;51.436;7.356;2023-05-29T04:16:50;15.10;40.30
1506;DHT22;744;51.436;7.356;2023-05-29T04:19:22;15.20;40.60
1506;DHT22;744;51.436;7.356;2023-05-29T04:21:49;15.50;40.80
1506;DHT22;744;51.436;7.356;2023-05-29T04:24:19;15.40;40.80
1506;DHT22;744;51.436;7.356;2023-05-29T04:26:46;15.60;40.80
1506;DHT22;744;51.436;7.356;2023-05-29T04:29:14;15.30;40.50
1506;DHT22;744;51.436;7.356;2023-05-29T04:31:41;15.50;40.70
1506;DHT22;744;51.436;7.356;2023-05-29T04:34:15;15.70;40.70
1506;DHT22;744;51.436;7.356;2023-05-29T04:36:44;15.30;40.50
1506;DHT22;744;51.436;7.356;2023-05-29T04:39:12;15.10;40.60
1506;DHT22;744;51.436;7.356;2023-05-29T04:41:42;15.50;40.70
1506;DHT22;744;51.436;7.356;2023-05-29T04:44:09;15.80;40.50
1506;DHT22;744;51.436;7.356;2023-05-29T04:46:38;16.10;40.30
1506;DHT22;744;51.436;7.356;2023-05-29T04:49:06;16.00;39.60
1506;DHT22;744;51.436;7.356;2023-05-29T04:51:36;16.20;39.70
1506;DHT22;744;51.436;7.356;2023-05-29T04:54:07;16.30;39.80
1506;DHT22;744;51.436;7.356;2023-05-29T04:56:36;15.80;39.70
1506;DHT22;744;51.436;7.356;2023-05-29T04:59:04;15.70;39.70
1506;DHT22;744;51.436;7.356;2023-05-29T05:01:32;15.60;39.60
1506;DHT22;744;51.436;7.356;2023-05-29T05:04:02;15.90;40.10
1506;DHT22;744;51.436;7.356;2023-05-29T05:06:29;15.90;40.10
1506;DHT22;744;51.436;7.356;2023-05-29T05:08:56;16.10;40.30
1506;DHT22;744;51.436;7.356;2023-05-29T05:11:24;15.90;40.10
1506;DHT22;744;51.436;7.356;2023-05-29T05:13:55;16.00;40.20
1506;DHT22;744;51.436;7.356;2023-05-29T05:16:21;15.80;40.00
1506;DHT22;744;51.436;7.356;2023-05-29T05:18:49;15.90;40.60
1506;DHT22;744;51.436;7.356;2023-05-29T05:21:16;15.40;40.10
1506;DHT22;744;51.436;7.356;2023-05-29T05:23:43;15.70;40.20
1506;DHT22;744;51.436;7.356;2023-05-29T05:26:12;16.10;40.10
1506;DHT22;744;51.436;7.356;2023-05-29T05:28:39;16.00;40.00
1506;DHT22;744;51.436;7.356;2023-05-29T05:31:08;16.10;39.90
1506;DHT22;744;51.436;7.356;2023-05-29T05:33:36;16.20;40.00
1506;DHT22;744;51.436;7.356;2023-05-29T05:39:54;16.10;39.30
1506;DHT22;744;51.436;7.356;2023-05-29T05:42:30;16.10;39.10
1506;DHT22;744;51.436;7.356;2023-05-29T05:44:59;16.10;39.10
1506;DHT22;744;51.436;7.356;2023-05-29T05:47:27;16.30;39.30
1506;DHT22;744;51.436;7.356;2023-05-29T05:53:42;16.00;39.00
1506;DHT22;744;51.436;7.356;2023-05-29T05:56:10;15.90;39.30
1506;DHT22;744;51.436;7.356;2023-05-29T05:58:37;16.20;39.50
1506;DHT22;744;51.436;7.356;2023-05-29T06:01:05;15.80;39.40
1506;DHT22;744;51.436;7.356;2023-05-29T06:03:34;15.80;39.60
1506;DHT22;744;51.436;7.356;2023-05-29T06:06:04;15.80;39.70
1506;DHT22;744;51.436;7.356;2023-05-29T06:08:32;15.90;39.60
1506;DHT22;744;51.436;7.356;2023-05-29T06:11:02;15.90;39.60
1506;DHT22;744;51.436;7.356;2023-05-29T06:13:30;16.00;39.50
1506;DHT22;744;51.436;7.356;2023-05-29T06:16:00;16.10;39.10
1506;DHT22;744;51.436;7.356;2023-05-29T06:18:28;16.00;39.10
1506;DHT22;744;51.436;7.356;2023-05-29T06:20:55;15.90;39.50
1506;DHT22;744;51.436;7.356;2023-05-29T06:23:24;16.00;39.80
1506;DHT22;744;51.436;7.356;2023-05-29T06:25:52;16.10;39.90
1506;DHT22;744;51.436;7.356;2023-05-29T06:28:19;16.00;39.70
1506;DHT22;744;51.436;7.356;2023-05-29T06:30:46;16.20;39.50
1506;DHT22;744;51.436;7.356;2023-05-29T06:33:14;16.00;39.50
1506;DHT22;744;51.436;7.356;2023-05-29T06:35:41;15.90;39.90
1506;DHT22;744;51.436;7.356;2023-05-29T06:38:16;15.90;40.00
1506;DHT22;744;51.436;7.356;2023-05-29T06:40:43;16.00;40.00
1506;DHT22;744;51.436;7.356;2023-05-29T06:43:10;16.20;39.50
1506;DHT22;744;51.436;7.356;2023-05-29T06:45:41;16.50;39.40
1506;DHT22;744;51.436;7.356;2023-05-29T06:48:12;16.60;39.50
1506;DHT22;744;51.436;7.356;2023-05-29T06:50:39;16.40;39.40
1506;DHT22;744;51.436;7.356;2023-05-29T06:53:06;16.50;39.50
1506;DHT22;744;51.436;7.356;2023-05-29T06:55:33;16.40;39.40
1506;DHT22;744;51.436;7.356;2023-05-29T06:58:01;16.70;39.60
1506;DHT22;744;51.436;7.356;2023-05-29T07:00:28;16.50;39.50
1506;DHT22;744;51.436;7.356;2023-05-29T07:03:16;16.80;39.50
1506;DHT22;744;51.436;7.356;2023-05-29T07:05:43;17.00;39.30
1506;DHT22;744;51.436;7.356;2023-05-29T07:08:11;17.30;39.20
1506;DHT22;744;51.436;7.356;2023-05-29T07:14:32;17.40;38.80
1506;DHT22;744;51.436;7.356;2023-05-29T07:17:01;17.40;38.60
1506;DHT22;744;51.436;7.356;2023-05-29T07:19:29;17.20;38.70
1506;DHT22;744;51.436;7.356;2023-05-29T07:21:56;17.30;39.20
1506;DHT22;744;51.436;7.356;2023-05-29T07:24:26;17.00;39.00
1506;DHT22;744;51.436;7.356;2023-05-29T07:26:54;16.90;39.00
1506;DHT22;744;51.436;7.356;2023-05-29T07:29:22;17.10;39.30
1506;DHT22;744;51.436;7.356;2023-05-29T07:31:51;17.20;39.10
1506;DHT22;744;51.436;7.356;2023-05-29T07:34:18;17.40;39.00
1506;DHT22;744;51.436;7.356;2023-05-29T07:37:04;16.80;39.00
1506;DHT22;744;51.436;7.356;2023-05-29T07:39:33;16.70;39.60
1506;DHT22;744;51.436;7.356;2023-05-29T07:42:11;16.60;39.60
1506;DHT22;744;51.436;7.356;2023-05-29T07:44:38;17.00;39.90
1506;DHT22;744;51.436;7.356;2023-05-29T07:47:05;17.00;39.40
1506;DHT22;744;51.436;7.356;2023-05-29T07:49:32;17.10;39.80
1506;DHT22;744;51.436;7.356;2023-05-29T07:52:00;16.80;39.70
1506;DHT22;744;51.436;7.356;2023-05-29T07:54:27;16.60;39.70
1506;DHT22;744;51.436;7.356;2023-05-29T07:56:54;16.80;39.80
1506;DHT22;744;51.436;7.356;2023-05-29T07:59:22;16.90;39.80
1506;DHT22;744;51.436;7.356;2023-05-29T08:05:43;17.40;39.80
1506;DHT22;744;51.436;7.356;2023-05-29T08:08:10;17.40;40.10
1506;DHT22;744;51.436;7.356;2023-05-29T08:10:40;17.20;39.80
1506;DHT22;744;51.436;7.356;2023-05-29T08:13:08;17.20;39.70
1506;DHT22;744;51.436;7.356;2023-05-29T08:15:36;17.20;40.00
1506;DHT22;744;51.436;7.356;2023-05-29T08:21:54;17.30;40.00
1506;DHT22;744;51.436;7.356;2023-05-29T08:24:23;17.40;39.80
1506;DHT22;744;51.436;7.356;2023-05-29T08:26:52;17.30;39.80
1506;DHT22;744;51.436;7.356;2023-05-29T08:29:20;17.40;40.20
1506;DHT22;744;51.436;7.356;2023-05-29T08:31:48;17.70;39.90
1506;DHT22;744;51.436;7.356;2023-05-29T08:34:15;17.80;39.30
1506;DHT22;744;51.436;7.356;2023-05-29T08:36:50;17.80;39.10
1506;DHT22;744;51.436;7.356;2023-05-29T08:39:19;17.70;38.90
1506;DHT22;744;51.436;7.356;2023-05-29T08:42:01;17.70;39.40
1506;DHT22;744;51.436;7.356;2023-05-29T08:44:33;17.50;39.40
1506;DHT22;744;51.436;7.356;2023-05-29T08:47:06;17.30;39.40
1506;DHT22;744;51.436;7.356;2023-05-29T08:49:43;17.80;39.80
1506;DHT22;744;51.436;7.356;2023-05-29T08:52:14;17.80;39.60
1506;DHT22;744;51.436;7.356;2023-05-29T08:54:44;18.00;39.30
1506;DHT22;744;51.436;7.356;2023-05-29T08:57:12;18.10;39.20
1506;DHT22;744;51.436;7.356;2023-05-29T08:59:43;18.10;38.90
1506;DHT22;744;51.436;7.356;2023-05-29T09:02:11;18.20;38.90
1506;DHT22;744;51.436;7.356;2023-05-29T09:04:41;18.40;38.60
1506;DHT22;744;51.436;7.356;2023-05-29T09:07:12;18.60;38.20
1506;DHT22;744;51.436;7.356;2023-05-29T09:09:39;18.50;37.60
1506;DHT22;744;51.436;7.356;2023-05-29T09:12:08;18.30;38.00
1506;DHT22;744;51.436;7.356;2023-05-29T09:14:41;18.30;38.40
1506;DHT22;744;51.436;7.356;2023-05-29T09:17:13;18.20;38.60
1506;DHT22;744;51.436;7.356;2023-05-29T09:19:40;18.40;38.60
1506;DHT22;744;51.436;7.356;2023-05-29T09:22:14;18.60;38.40
1506;DHT22;744;51.436;7.356;2023-05-29T09:24:47;18.60;38.00
1506;DHT22;744;51.436;7.356;2023-05-29T09:31:16;19.20;37.20
1506;DHT22;744;51.436;7.356;2023-05-29T09:33:50;18.70;37.30
1506;DHT22;744;51.436;7.356;2023-05-29T09:36:22;18.60;37.10
1506;DHT22;744;51.436;7.356;2023-05-29T09:38:52;18.60;37.20
1506;DHT22;744;51.436;7.356;2023-05-29T09:41:31;18.60;37.30
1506;DHT22;744;51.436;7.356;2023-05-29T09:44:00;18.80;37.20
1506;DHT22;744;51.436;7.356;2023-05-29T09:46:34;19.10;37.10
1506;DHT22;744;51.436;7.356;2023-05-29T09:49:12;18.90;36.90
1506;DHT22;744;51.436;7.356;2023-05-29T09:51:41;18.90;37.00
1506;DHT22;744;51.436;7.356;2023-05-29T09:54:16;19.00;37.00
1506;DHT22;744;51.436;7.356;2023-05-29T09:56:50;19.20;37.20
1506;DHT22;744;51.436;7.356;2023-05-29T09:59:19;19.50;36.70
1506;DHT22;744;51.436;7.356;2023-05-29T10:01:48;19.60;36.20
1506;DHT22;744;51.436;7.356;2023-05-29T10:08:07;19.90;35.40
1506;DHT22;744;51.436;7.356;2023-05-29T10:10:36;19.90;35.40
1506;DHT22;744;51.436;7.356;2023-05-29T10:13:06;20.00;35.20
1506;DHT22;744;51.436;7.356;2023-05-29T10:15:36;20.10;35.10
1506;DHT22;744;51.436;7.356;2023-05-29T10:18:07;20.10;35.00
1506;DHT22;744;51.436;7.356;2023-05-29T10:20:41;19.80;35.20
1506;DHT22;744;51.436;7.356;2023-05-29T10:23:13;19.70;35.30
1506;DHT22;744;51.436;7.356;2023-05-29T10:26:06;19.60;35.20
1506;DHT22;744;51.436;7.356;2023-05-29T10:28:37;19.70;35.70
1506;DHT22;744;51.436;7.356;2023-05-29T10:31:10;19.40;35.60
1506;DHT22;744;51.436;7.356;2023-05-29T10:39:37;19.50;35.70
1506;DHT22;744;51.436;7.356;2023-05-29T10:45:07;19.70;35.80
1506;DHT22;744;51.436;7.356;2023-05-29T10:47:35;19.60;35.60
1506;DHT22;744;51.436;7.356;2023-05-29T10:50:03;19.80;35.80
1506;DHT22;744;51.436;7.356;2023-05-29T10:52:34;19.70;35.40
1506;DHT22;744;51.436;7.356;2023-05-29T10:55:02;19.80;35.40
1506;DHT22;744;51.436;7.356;2023-05-29T10:57:31;20.10;35.40
1506;DHT22;744;51.436;7.356;2023-05-29T11:00:08;20.40;35.10
1506;DHT22;744;51.436;7.356;2023-05-29T11:02:40;20.60;34.70
1506;DHT22;744;51.436;7.356;2023-05-29T11:05:24;20.60;34.50
1506;DHT22;744;51.436;7.356;2023-05-29T11:08:01;20.60;34.60
1506;DHT22;744;51.436;7.356;2023-05-29T11:13:37;20.40;34.40
1506;DHT22;744;51.436;7.356;2023-05-29T11:23:15;20.30;34.30
1506;DHT22;744;51.436;7.356;2023-05-29T11:25:45;20.60;34.40
1506;DHT22;744;51.436;7.356;2023-05-29T11:28:13;20.70;33.80
1506;DHT22;744;51.436;7.356;2023-05-29T11:30:46;20.60;33.80
1506;DHT22;744;51.436;7.356;2023-05-29T11:33:24;20.70;33.90
1506;DHT22;744;51.436;7.356;2023-05-29T11:35:59;20.70;33.80
1506;DHT22;744;51.436;7.356;2023-05-29T11:38:28;20.70;33.80
1506;DHT22;744;51.436;7.356;2023-05-29T11:40:56;20.90;34.00
1506;DHT22;744;51.436;7.356;2023-05-29T11:43:28;20.90;34.00
1506;DHT22;744;51.436;7.356;2023-05-29T11:45:55;20.80;33.50
1506;DHT22;744;51.436;7.356;2023-05-29T11:48:22;20.70;34.30
1506;DHT22;744;51.436;7.356;2023-05-29T11:50:51;20.70;33.80
1506;DHT22;744;51.436;7.356;2023-05-29T11:53:18;20.70;33.80
1506;DHT22;744;51.436;7.356;2023-05-29T11:55:45;20.60;33.70
1506;DHT22;744;51.436;7.356;2023-05-29T11:58:15;20.70;33.80
1506;DHT22;744;51.436;7.356;2023-05-29T12:00:44;20.80;33.90
1506;DHT22;744;51.436;7.356;2023-05-29T12:03:30;21.10;34.00
1506;DHT22;744;51.436;7.356;2023-05-29T12:05:57;21.20;33.50
1506;DHT22;744;51.436;7.356;2023-05-29T12:08:25;21.30;33.20
1506;DHT22;744;51.436;7.356;2023-05-29T12:10:53;21.10;33.10
1506;DHT22;744;51.436;7.356;2023-05-29T12:13:21;21.00;33.40
1506;DHT22;744;51.436;7.356;2023-05-29T12:15:53;20.90;33.60
1506;DHT22;744;51.436;7.356;2023-05-29T12:18:24;21.10;33.70
1506;DHT22;744;51.436;7.356;2023-05-29T12:21:00;21.10;33.40
1506;DHT22;744;51.436;7.356;2023-05-29T12:23:31;21.20;33.10
1506;DHT22;744;51.436;7.356;2023-05-29T12:25:58;21.20;32.80
1506;DHT22;744;51.436;7.356;2023-05-29T12:28:26;21.40;33.00
1506;DHT22;744;51.436;7.356;2023-05-29T12:31:25;21.50;32.80
1506;DHT22;744;51.436;7.356;2023-05-29T12:34:01;21.80;32.40
1506;DHT22;744;51.436;7.356;2023-05-29T12:36:30;21.80;32.20
1506;DHT22;744;51.436;7.356;2023-05-29T12:39:10;21.70;31.90
1506;DHT22;744;51.436;7.356;2023-05-29T12:41:38;21.60;32.10
1506;DHT22;744;51.436;7.356;2023-05-29T12:44:07;21.50;31.90
1506;DHT22;744;51.436;7.356;2023-05-29T12:46:41;21.50;32.10
1506;DHT22;744;51.436;7.356;2023-05-29T12:49:15;21.40;32.30
1506;DHT22;744;51.436;7.356;2023-05-29T12:51:43;21.30;32.30
1506;DHT22;744;51.436;7.356;2023-05-29T12:54:15;21.30;32.40
1506;DHT22;744;51.436;7.356;2023-05-29T12:56:43;21.50;32.40
1506;DHT22;744;51.436;7.356;2023-05-29T12:59:13;21.70;32.10
1506;DHT22;744;51.436;7.356;2023-05-29T13:08:32;22.30;31.60
1506;DHT22;744;51.436;7.356;2023-05-29T13:11:00;22.30;31.10
1506;DHT22;744;51.436;7.356;2023-05-29T13:13:28;22.30;30.90
1506;DHT22;744;51.436;7.356;2023-05-29T13:15:55;22.30;31.40
1506;DHT22;744;51.436;7.356;2023-05-29T13:18:24;22.30;30.50
1506;DHT22;744;51.436;7.356;2023-05-29T13:20:51;22.30;30.70
1506;DHT22;744;51.436;7.356;2023-05-29T13:23:20;22.10;30.60
1506;DHT22;744;51.436;7.356;2023-05-29T13:25:47;21.90;31.00
1506;DHT22;744;51.436;7.356;2023-05-29T13:28:16;22.10;31.20
1506;DHT22;744;51.436;7.356;2023-05-29T13:30:43;22.20;31.20
1506;DHT22;744;51.436;7.356;2023-05-29T13:33:11;22.20;31.00
1506;DHT22;744;51.436;7.356;2023-05-29T13:35:38;22.00;30.80
1506;DHT22;744;51.436;7.356;2023-05-29T13:38:08;21.90;31.00
1506;DHT22;744;51.436;7.356;2023-05-29T13:40:35;21.90;31.20
1506;DHT22;744;51.436;7.356;2023-05-29T13:43:05;21.70;31.10
1506;DHT22;744;51.436;7.356;2023-05-29T13:45:32;21.60;31.60
1506;DHT22;744;51.436;7.356;2023-05-29T13:47:59;21.60;31.50
1506;DHT22;744;51.436;7.356;2023-05-29T13:50:26;21.50;31.10
1506;DHT22;744;51.436;7.356;2023-05-29T13:52:54;21.60;31.50
1506;DHT22;744;51.436;7.356;2023-05-29T13:55:21;21.50;31.30
1506;DHT22;744;51.436;7.356;2023-05-29T13:57:48;21.60;31.70
1506;DHT22;744;51.436;7.356;2023-05-29T14:00:15;21.70;31.10
1506;DHT22;744;51.436;7.356;2023-05-29T14:02:44;21.70;31.10
1506;DHT22;744;51.436;7.356;2023-05-29T14:05:11;21.70;31.20
1506;DHT22;744;51.436;7.356;2023-05-29T14:07:38;21.80;31.10
1506;DHT22;744;51.436;7.356;2023-05-29T14:10:06;21.90;31.00
1506;DHT22;744;51.436;7.356;2023-05-29T14:12:36;22.10;30.90
1506;DHT22;744;51.436;7.356;2023-05-29T14:15:04;22.00;30.20
1506;DHT22;744;51.436;7.356;2023-05-29T14:17:31;21.80;30.00
1506;DHT22;744;51.436;7.356;2023-05-29T14:19:59;21.70;30.00
1506;DHT22;744;51.436;7.356;2023-05-29T14:22:31;21.80;30.00
1506;DHT22;744;51.436;7.356;2023-05-29T14:24:59;21.80;30.00
1506;DHT22;744;51.436;7.356;2023-05-29T14:27:27;21.80;30.00
1506;DHT22;744;51.436;7.356;2023-05-29T14:29:55;21.80;30.00
1506;DHT22;744;51.436;7.356;2023-05-29T14:32:22;21.70;30.00
1506;DHT22;744;51.436;7.356;2023-05-29T14:35:10;21.80;30.00
1506;DHT22;744;51.436;7.356;2023-05-29T14:37:39;21.90;30.10
1506;DHT22;744;51.436;7.356;2023-05-29T14:40:07;21.80;30.00
1506;DHT22;744;51.436;7.356;2023-05-29T14:42:35;21.80;30.00
1506;DHT22;744;51.436;7.356;2023-05-29T14:45:02;21.80;30.00
1506;DHT22;744;51.436;7.356;2023-05-29T14:47:30;21.80;30.00
1506;DHT22;744;51.436;7.356;2023-05-29T14:49:58;21.80;30.00
1506;DHT22;744;51.436;7.356;2023-05-29T14:52:26;21.90;30.10
1506;DHT22;744;51.436;7.356;2023-05-29T14:54:53;22.20;30.30
1506;DHT22;744;51.436;7.356;2023-05-29T14:57:20;22.10;30.10
1506;DHT22;744;51.436;7.356;2023-05-29T14:59:48;22.10;30.20
1506;DHT22;744;51.436;7.356;2023-05-29T15:02:16;22.10;30.20
1506;DHT22;744;51.436;7.356;2023-05-29T15:04:43;22.00;30.00
1506;DHT22;744;51.436;7.356;2023-05-29T15:07:10;22.00;30.00
1506;DHT22;744;51.436;7.356;2023-05-29T15:09:37;22.00;29.40
1506;DHT22;744;51.436;7.356;2023-05-29T15:12:05;22.10;29.50
1506;DHT22;744;51.436;7.356;2023-05-29T15:14:34;22.10;29.70
1506;DHT22;744;51.436;7.356;2023-05-29T15:17:02;22.20;29.80
1506;DHT22;744;51.436;7.356;2023-05-29T15:19:29;22.30;29.40
1506;DHT22;744;51.436;7.356;2023-05-29T15:21:58;22.50;29.00
1506;DHT22;744;51.436;7.356;2023-05-29T15:24:25;22.60;28.50
1506;DHT22;744;51.436;7.356;2023-05-29T15:26:52;22.60;28.40
1506;DHT22;744;51.436;7.356;2023-05-29T15:29:19;22.60;28.40
1506;DHT22;744;51.436;7.356;2023-05-29T15:31:47;22.90;28.60
1506;DHT22;744;51.436;7.356;2023-05-29T15:34:15;23.00;28.20
1506;DHT22;744;51.436;7.356;2023-05-29T15:36:42;23.00;28.10
1506;DHT22;744;51.436;7.356;2023-05-29T15:39:09;23.00;27.90
1506;DHT22;744;51.436;7.356;2023-05-29T15:41:36;23.10;28.10
1506;DHT22;744;51.436;7.356;2023-05-29T15:44:04;23.20;27.70
1506;DHT22;744;51.436;7.356;2023-05-29T15:46:31;23.20;27.30
1506;DHT22;744;51.436;7.356;2023-05-29T15:48:58;23.30;27.30
1506;DHT22;744;51.436;7.356;2023-05-29T15:51:26;23.40;27.40
1506;DHT22;744;51.436;7.356;2023-05-29T15:53:54;23.20;27.30
1506;DHT22;744;51.436;7.356;2023-05-29T15:56:21;23.10;27.20
1506;DHT22;744;51.436;7.356;2023-05-29T15:58:54;23.10;27.20
1506;DHT22;744;51.436;7.356;2023-05-29T16:01:24;23.10;27.20
1506;DHT22;744;51.436;7.356;2023-05-29T16:03:51;23.00;27.10
1506;DHT22;744;51.436;7.356;2023-05-29T16:06:21;23.10;27.20
1506;DHT22;744;51.436;7.356;2023-05-29T16:08:48;23.20;27.10
1506;DHT22;744;51.436;7.356;2023-05-29T16:11:15;23.10;26.90
1506;DHT22;744;51.436;7.356;2023-05-29T16:13:45;23.00;27.70
1506;DHT22;744;51.436;7.356;2023-05-29T16:16:13;23.00;27.00
1506;DHT22;744;51.436;7.356;2023-05-29T16:18:40;23.00;26.90
1506;DHT22;744;51.436;7.356;2023-05-29T16:21:08;23.10;27.00
1506;DHT22;744;51.436;7.356;2023-05-29T16:23:45;23.10;26.40
1506;DHT22;744;51.436;7.356;2023-05-29T16:26:13;23.10;26.40
1506;DHT22;744;51.436;7.356;2023-05-29T16:28:40;23.00;26.40
1506;DHT22;744;51.436;7.356;2023-05-29T16:31:10;23.00;26.20
1506;DHT22;744;51.436;7.356;2023-05-29T16:33:37;23.20;26.40
1506;DHT22;744;51.436;7.356;2023-05-29T16:36:05;23.20;26.20
1506;DHT22;744;51.436;7.356;2023-05-29T16:38:32;23.00;26.10
1506;DHT22;744;51.436;7.356;2023-05-29T16:41:00;22.90;26.20
1506;DHT22;744;51.436;7.356;2023-05-29T16:43:27;22.80;26.10
1506;DHT22;744;51.436;7.356;2023-05-29T16:45:54;22.80;26.00
1506;DHT22;744;51.436;7.356;2023-05-29T16:48:23;22.80;25.90
1506;DHT22;744;51.436;7.356;2023-05-29T16:50:53;22.70;25.70
1506;DHT22;744;51.436;7.356;2023-05-29T16:53:22;22.90;25.80
1506;DHT22;744;51.436;7.356;2023-05-29T16:55:50;22.80;25.50
1506;DHT22;744;51.436;7.356;2023-05-29T17:02:51;23.10;25.10
1506;DHT22;744;51.436;7.356;2023-05-29T17:05:19;23.10;25.10
1506;DHT22;744;51.436;7.356;2023-05-29T17:07:47;23.10;24.60
1506;DHT22;744;51.436;7.356;2023-05-29T17:10:14;23.10;24.50
1506;DHT22;744;51.436;7.356;2023-05-29T17:12:44;23.10;24.40
1506;DHT22;744;51.436;7.356;2023-05-29T17:15:13;23.10;24.30
1506;DHT22;744;51.436;7.356;2023-05-29T17:17:41;23.00;23.80
1506;DHT22;744;51.436;7.356;2023-05-29T17:20:10;22.90;24.00
1506;DHT22;744;51.436;7.356;2023-05-29T17:22:42;22.80;24.00
1506;DHT22;744;51.436;7.356;2023-05-29T17:25:10;22.70;24.50
1506;DHT22;744;51.436;7.356;2023-05-29T17:27:37;22.70;24.10
1506;DHT22;744;51.436;7.356;2023-05-29T17:30:05;22.80;24.00
1506;DHT22;744;51.436;7.356;2023-05-29T17:36:52;23.10;24.00
1506;DHT22;744;51.436;7.356;2023-05-29T17:39:19;23.00;23.30
1506;DHT22;744;51.436;7.356;2023-05-29T17:41:47;23.20;23.50
1506;DHT22;744;51.436;7.356;2023-05-29T17:44:14;23.30;23.50
1506;DHT22;744;51.436;7.356;2023-05-29T17:46:42;23.50;23.70
1506;DHT22;744;51.436;7.356;2023-05-29T17:49:10;23.60;23.10
1506;DHT22;744;51.436;7.356;2023-05-29T17:51:37;23.60;23.00
1506;DHT22;744;51.436;7.356;2023-05-29T17:54:06;23.70;23.10
1506;DHT22;744;51.436;7.356;2023-05-29T17:56:37;23.60;22.50